Time;durP1;ratioP1;P1;durP2;ratioP2;P2;SDS_P1;SDS_P2;PMS_P1;PMS_P2;Temp;Humidity;BMP_temperature;BMP_pressure;BME280_temperature;BME280_humidity;BME280_pressure;Samples;Min_cycle;Max_cycle;Signal;HPM_P1;HPM_P2
2023/08/16 00:02:04;;;;;;;4.37;2.67;;;16.00;99.90;;;;;;5057170;28;20174;-73
2023/08/16 00:04:31;;;;;;;7.20;3.10;;;15.90;99.90;;;;;;5064628;28;20235;-67
2023/08/16 00:06:57;;;;;;;5.53;3.13;;;15.90;99.90;;;;;;5072441;28;20170;-65
2023/08/16 00:09:23;;;;;;;3.97;2.60;;;15.90;99.90;;;;;;5072232;28;20432;-72
2023/08/16 00:11:48;;;;;;;6.10;3.00;;;15.90;99.90;;;;;;5073212;28;20583;-67
2023/08/16 00:14:14;;;;;;;4.80;2.90;;;15.80;99.90;;;;;;5070132;28;20182;-68
2023/08/16 00:16:40;;;;;;;9.10;2.93;;;15.80;99.90;;;;;;5058643;28;20186;-68
2023/08/16 00:19:05;;;;;;;10.33;3.10;;;15.90;99.90;;;;;;5061515;28;20202;-68
2023/08/16 00:21:31;;;;;;;3.10;2.83;;;15.80;99.90;;;;;;5073134;28;20197;-68
2023/08/16 00:23:57;;;;;;;3.50;2.33;;;15.80;99.90;;;;;;5071843;28;20178;-68
2023/08/16 00:26:23;;;;;;;3.17;2.83;;;15.80;99.90;;;;;;5063327;28;20179;-66
2023/08/16 00:28:49;;;;;;;6.53;3.80;;;15.70;99.90;;;;;;5053358;28;20206;-66
2023/08/16 00:31:15;;;;;;;6.30;3.30;;;15.80;99.90;;;;;;5064677;28;20183;-68
2023/08/16 00:33:41;;;;;;;5.60;4.03;;;15.70;99.90;;;;;;5051469;28;20409;-68
2023/08/16 00:36:07;;;;;;;6.40;2.97;;;15.70;99.90;;;;;;5051233;28;20422;-65
2023/08/16 00:38:33;;;;;;;3.70;3.13;;;15.70;99.90;;;;;;5055967;28;20206;-66
2023/08/16 00:40:59;;;;;;;2.90;2.60;;;15.70;99.90;;;;;;5072660;28;20899;-68
2023/08/16 00:43:25;;;;;;;3.10;2.70;;;15.70;99.90;;;;;;5070315;28;20504;-69
2023/08/16 00:45:51;;;;;;;2.70;2.50;;;15.70;99.90;;;;;;5061919;28;20179;-66
2023/08/16 00:48:18;;;;;;;5.00;2.80;;;15.70;99.90;;;;;;5052580;28;20194;-67
2023/08/16 00:50:45;;;;;;;3.07;2.77;;;15.60;99.90;;;;;;5052747;28;20907;-67
2023/08/16 00:53:13;;;;;;;7.80;2.93;;;15.60;99.90;;;;;;5051215;28;20922;-68
2023/08/16 00:55:39;;;;;;;3.33;2.63;;;15.60;99.90;;;;;;5057476;28;20452;-68
2023/08/16 00:58:06;;;;;;;3.53;3.27;;;15.50;99.90;;;;;;5052579;28;20914;-66
2023/08/16 01:00:32;;;;;;;6.00;3.20;;;15.50;99.90;;;;;;5062715;28;20476;-67
2023/08/16 01:02:58;;;;;;;4.50;3.03;;;15.50;99.90;;;;;;5052740;28;20407;-69
2023/08/16 01:05:24;;;;;;;4.03;3.17;;;15.50;99.90;;;;;;5065883;28;20861;-70
2023/08/16 01:07:50;;;;;;;4.63;3.87;;;15.50;99.90;;;;;;5052572;28;20199;-65
2023/08/16 01:10:16;;;;;;;3.33;3.10;;;15.40;99.90;;;;;;5051958;28;20186;-66
2023/08/16 01:12:57;;;;;;;6.07;2.60;;;15.40;99.90;;;;;;5052508;28;20397;-69
2023/08/16 01:15:30;;;;;;;5.80;3.27;;;15.40;99.90;;;;;;5051920;28;20606;-68
2023/08/16 01:17:58;;;;;;;4.60;3.50;;;15.40;99.90;;;;;;5052407;28;20536;-65
2023/08/16 01:20:27;;;;;;;4.40;2.80;;;15.40;99.90;;;;;;5052313;28;20552;-69
2023/08/16 01:23:05;;;;;;;6.20;3.30;;;15.30;99.90;;;;;;5052338;28;20397;-69
2023/08/16 01:25:42;;;;;;;3.60;2.70;;;15.40;99.90;;;;;;5066004;28;20428;-66
2023/08/16 01:28:10;;;;;;;4.50;3.30;;;15.30;99.90;;;;;;5071307;28;20447;-66
2023/08/16 01:30:37;;;;;;;5.20;3.27;;;15.30;99.90;;;;;;5054425;28;20458;-65
2023/08/16 01:33:07;;;;;;;4.97;3.37;;;15.30;99.90;;;;;;5056234;28;20453;-75
2023/08/16 01:35:34;;;;;;;8.77;3.20;;;15.30;99.90;;;;;;5049801;28;20433;-71
2023/08/16 01:38:00;;;;;;;6.73;2.73;;;15.30;99.90;;;;;;5053437;28;20539;-72
2023/08/16 01:40:30;;;;;;;6.90;2.90;;;15.20;99.90;;;;;;5048330;28;20546;-69
2023/08/16 01:42:57;;;;;;;4.13;3.83;;;15.20;99.90;;;;;;5051367;28;20436;-66
2023/08/16 01:45:24;;;;;;;3.67;3.30;;;15.20;99.90;;;;;;5050870;28;20433;-68
2023/08/16 01:47:50;;;;;;;3.50;3.20;;;15.10;99.90;;;;;;5072518;28;20458;-69
2023/08/16 01:50:16;;;;;;;3.60;3.30;;;15.10;99.90;;;;;;5073131;28;20458;-67
2023/08/16 01:52:42;;;;;;;3.90;2.90;;;15.10;99.90;;;;;;5075492;28;20405;-67
2023/08/16 01:55:08;;;;;;;3.70;3.40;;;15.00;99.90;;;;;;5074984;28;20451;-67
2023/08/16 01:57:34;;;;;;;4.73;4.20;;;15.00;99.90;;;;;;5075811;28;20213;-68
2023/08/16 01:59:59;;;;;;;5.80;3.33;;;15.00;99.90;;;;;;5066567;28;20469;-66
2023/08/16 02:02:25;;;;;;;5.17;3.60;;;15.00;99.90;;;;;;5054727;28;20681;-69
2023/08/16 02:04:51;;;;;;;4.40;4.00;;;15.00;99.90;;;;;;5055508;28;20594;-66
2023/08/16 02:07:16;;;;;;;4.50;4.10;;;15.00;99.90;;;;;;5055046;28;20215;-65
2023/08/16 02:09:42;;;;;;;11.40;4.13;;;15.00;99.90;;;;;;5061050;28;20666;-68
2023/08/16 02:12:08;;;;;;;7.33;4.30;;;15.00;99.90;;;;;;5055069;28;20190;-69
2023/08/16 02:14:34;;;;;;;5.87;3.70;;;15.00;99.90;;;;;;5061126;28;20178;-68
2023/08/16 02:16:59;;;;;;;3.83;3.40;;;14.90;99.90;;;;;;5059235;28;20214;-67
2023/08/16 02:19:25;;;;;;;5.63;3.67;;;14.90;99.90;;;;;;5075580;28;20201;-71
2023/08/16 02:21:51;;;;;;;4.63;4.07;;;14.90;99.90;;;;;;5070127;28;20202;-66
2023/08/16 02:24:16;;;;;;;10.03;4.00;;;14.90;99.90;;;;;;5059345;28;20178;-68
2023/08/16 02:26:42;;;;;;;7.20;4.30;;;14.90;99.90;;;;;;5074327;28;20215;-67
2023/08/16 02:29:08;;;;;;;10.07;4.43;;;14.80;99.90;;;;;;5073324;28;20317;-69
2023/08/16 02:31:33;;;;;;;17.83;5.40;;;14.90;99.90;;;;;;5057548;28;20186;-69
2023/08/16 02:33:59;;;;;;;5.23;4.03;;;14.80;99.90;;;;;;5060298;28;20720;-66
2023/08/16 02:36:24;;;;;;;6.43;4.20;;;14.90;99.90;;;;;;5073002;28;20170;-69
2023/08/16 02:38:50;;;;;;;4.10;3.80;;;14.80;99.90;;;;;;5074903;28;20316;-67
2023/08/16 02:41:16;;;;;;;5.37;4.67;;;14.80;99.90;;;;;;5075102;28;20174;-65
2023/08/16 02:43:41;;;;;;;9.67;4.60;;;14.80;99.90;;;;;;5073199;28;20202;-68
2023/08/16 02:46:07;;;;;;;5.53;4.20;;;14.80;99.90;;;;;;5063511;28;20191;-67
2023/08/16 02:48:33;;;;;;;7.50;5.00;;;14.80;99.90;;;;;;5054442;28;20598;-69
2023/08/16 02:50:58;;;;;;;7.37;4.20;;;14.80;99.90;;;;;;5054779;28;20183;-67
2023/08/16 02:53:24;;;;;;;7.80;5.30;;;14.80;99.90;;;;;;5054795;28;20191;-66
2023/08/16 02:55:50;;;;;;;8.03;4.93;;;14.70;99.90;;;;;;5064280;28;20179;-66
2023/08/16 02:58:15;;;;;;;7.63;5.70;;;14.80;99.90;;;;;;5054684;28;20206;-66
2023/08/16 03:00:41;;;;;;;6.33;4.80;;;14.70;99.90;;;;;;5063338;28;20270;-70
2023/08/16 03:03:07;;;;;;;10.57;6.33;;;14.80;99.90;;;;;;5054573;28;20170;-66
2023/08/16 03:05:32;;;;;;;5.90;5.27;;;14.90;99.90;;;;;;5068395;28;20186;-69
2023/08/16 03:07:58;;;;;;;6.57;5.80;;;14.90;99.90;;;;;;5069482;28;20194;-65
2023/08/16 03:10:24;;;;;;;8.00;6.17;;;14.90;99.90;;;;;;5054525;28;20197;-68
2023/08/16 03:12:49;;;;;;;7.03;5.60;;;14.90;99.90;;;;;;5054427;28;20194;-65
2023/08/16 03:15:15;;;;;;;12.80;6.43;;;14.90;99.90;;;;;;5063724;28;20195;-65
2023/08/16 03:17:41;;;;;;;7.07;5.23;;;14.90;99.90;;;;;;5073954;28;20222;-65
2023/08/16 03:20:08;;;;;;;9.80;5.47;;;14.90;99.90;;;;;;5074419;28;20355;-66
2023/08/16 03:22:34;;;;;;;7.30;5.70;;;14.90;99.90;;;;;;5074553;28;20568;-66
2023/08/16 03:24:59;;;;;;;8.60;5.73;;;14.90;99.90;;;;;;5071712;28;20428;-65
2023/08/16 03:27:25;;;;;;;9.50;5.33;;;15.00;99.90;;;;;;5055443;28;20352;-69
2023/08/16 03:29:51;;;;;;;8.13;5.50;;;15.00;99.90;;;;;;5061118;28;20193;-65
2023/08/16 03:32:16;;;;;;;6.23;5.17;;;15.00;99.90;;;;;;5055373;28;20694;-65
2023/08/16 03:34:42;;;;;;;5.17;4.50;;;15.00;99.90;;;;;;5061401;28;20631;-66
2023/08/16 03:37:08;;;;;;;6.10;4.80;;;15.00;99.90;;;;;;5073016;28;20550;-65
2023/08/16 03:39:34;;;;;;;6.60;4.77;;;15.00;99.90;;;;;;5057542;28;20214;-67
2023/08/16 03:42:00;;;;;;;6.40;5.30;;;14.90;99.90;;;;;;5053501;28;20175;-66
2023/08/16 03:44:25;;;;;;;6.00;4.60;;;14.90;99.90;;;;;;5061834;28;20202;-67
2023/08/16 03:46:51;;;;;;;4.80;3.77;;;15.00;99.90;;;;;;5057330;28;20217;-66
2023/08/16 03:49:17;;;;;;;5.47;4.93;;;14.90;99.90;;;;;;5053966;28;20282;-69
2023/08/16 03:51:43;;;;;;;6.23;4.27;;;14.90;99.90;;;;;;5052396;28;20240;-67
2023/08/16 03:54:08;;;;;;;5.00;4.50;;;14.90;99.90;;;;;;5059762;28;20205;-66
2023/08/16 03:56:34;;;;;;;8.30;5.07;;;14.80;99.90;;;;;;5072649;28;20182;-68
2023/08/16 03:59:00;;;;;;;5.40;4.40;;;14.80;99.90;;;;;;5057214;28;20206;-67
2023/08/16 04:01:25;;;;;;;11.67;4.47;;;14.90;99.90;;;;;;5061747;28;20179;-71
2023/08/16 04:03:51;;;;;;;10.37;4.80;;;14.90;99.90;;;;;;5061525;28;20178;-65
2023/08/16 04:06:20;;;;;;;5.93;4.10;;;14.90;99.90;;;;;;5072597;28;20170;-68
2023/08/16 04:08:46;;;;;;;6.03;4.10;;;14.90;99.90;;;;;;5073236;28;20651;-68
2023/08/16 04:11:11;;;;;;;6.03;4.50;;;14.80;99.90;;;;;;5054630;28;20448;-66
2023/08/16 04:13:37;;;;;;;7.53;5.03;;;14.80;99.90;;;;;;5052941;28;20951;-74
2023/08/16 04:16:03;;;;;;;5.93;3.87;;;14.70;99.90;;;;;;5052613;28;20186;-65
2023/08/16 04:18:29;;;;;;;7.70;5.13;;;14.80;99.90;;;;;;5053218;28;20431;-68
2023/08/16 04:20:56;;;;;;;7.40;5.00;;;14.80;99.90;;;;;;5053191;28;20467;-68
2023/08/16 04:23:23;;;;;;;6.20;4.97;;;14.70;99.90;;;;;;5052351;28;20456;-72
2023/08/16 04:25:49;;;;;;;9.53;5.13;;;14.70;99.90;;;;;;5071999;28;20416;-65
2023/08/16 04:28:14;;;;;;;4.67;3.83;;;14.70;99.90;;;;;;5071183;28;20428;-67
2023/08/16 04:30:40;;;;;;;4.70;4.30;;;14.80;99.90;;;;;;5052923;28;20241;-69
2023/08/16 04:33:06;;;;;;;5.90;4.60;;;14.70;99.90;;;;;;5052570;28;20177;-66
2023/08/16 04:35:32;;;;;;;5.03;4.10;;;14.80;99.90;;;;;;5068045;28;20192;-67
2023/08/16 04:37:58;;;;;;;6.83;6.13;;;14.80;99.90;;;;;;5052920;28;20547;-67
2023/08/16 04:40:23;;;;;;;7.00;4.20;;;14.80;99.90;;;;;;5052849;28;20203;-65
2023/08/16 04:42:49;;;;;;;7.30;4.77;;;14.80;99.90;;;;;;5061772;28;20178;-65
2023/08/16 04:45:15;;;;;;;12.93;5.60;;;14.80;99.90;;;;;;5068521;28;20182;-65
2023/08/16 04:47:41;;;;;;;5.77;4.63;;;14.90;99.90;;;;;;5052332;28;20202;-67
2023/08/16 04:50:07;;;;;;;5.07;3.70;;;14.90;99.90;;;;;;5062256;28;20186;-67
2023/08/16 04:52:37;;;;;;;5.57;4.97;;;14.90;99.90;;;;;;5071751;28;20454;-64
2023/08/16 04:55:06;;;;;;;4.80;4.30;;;15.00;99.90;;;;;;5071793;28;20424;-72
2023/08/16 04:57:32;;;;;;;5.67;4.50;;;14.90;99.90;;;;;;5052510;28;20684;-65
2023/08/16 04:59:58;;;;;;;4.70;3.50;;;14.90;99.90;;;;;;5053716;28;20989;-64
2023/08/16 05:02:24;;;;;;;5.03;3.93;;;14.90;99.90;;;;;;5052299;28;20187;-64
2023/08/16 05:04:50;;;;;;;7.33;3.80;;;14.90;99.90;;;;;;5051637;28;20245;-66
2023/08/16 05:07:15;;;;;;;4.23;3.83;;;15.00;99.90;;;;;;5052431;28;20464;-66
2023/08/16 05:09:41;;;;;;;4.70;3.80;;;15.00;99.90;;;;;;5064350;28;20247;-68
2023/08/16 05:12:07;;;;;;;5.20;4.27;;;15.10;99.90;;;;;;5072298;28;20620;-66
2023/08/16 05:14:33;;;;;;;16.07;4.30;;;15.10;99.90;;;;;;5070522;28;20186;-66
2023/08/16 05:16:58;;;;;;;6.40;3.87;;;15.20;99.90;;;;;;5066176;28;20490;-65
2023/08/16 05:19:24;;;;;;;8.20;4.30;;;15.20;99.90;;;;;;5070036;28;20296;-66
2023/08/16 05:21:50;;;;;;;4.20;3.83;;;15.20;99.90;;;;;;5064936;28;20171;-68
2023/08/16 05:24:15;;;;;;;6.30;3.93;;;15.30;99.90;;;;;;5060039;28;20174;-65
2023/08/16 05:26:41;;;;;;;5.27;4.03;;;15.40;99.90;;;;;;5055512;28;20179;-67
2023/08/16 05:29:07;;;;;;;8.60;4.27;;;15.40;99.90;;;;;;5055531;28;20171;-70
2023/08/16 05:31:32;;;;;;;10.93;4.03;;;15.50;99.90;;;;;;5071717;28;20248;-66
2023/08/16 05:33:58;;;;;;;4.73;3.80;;;15.50;99.90;;;;;;5076473;28;20178;-67
2023/08/16 05:36:29;;;;;;;5.10;3.90;;;15.60;99.90;;;;;;5073301;28;20747;-65
2023/08/16 05:38:54;;;;;;;6.60;4.20;;;15.60;99.90;;;;;;5076105;28;20221;-66
2023/08/16 05:41:20;;;;;;;13.10;4.50;;;15.70;99.90;;;;;;5075170;28;20468;-67
2023/08/16 05:43:46;;;;;;;4.90;3.10;;;15.70;99.90;;;;;;5076200;28;20174;-66
2023/08/16 05:46:11;;;;;;;7.10;3.70;;;15.80;99.90;;;;;;5063001;28;20183;-67
2023/08/16 05:48:37;;;;;;;5.73;3.87;;;15.80;99.90;;;;;;5055619;28;20266;-67
2023/08/16 05:51:03;;;;;;;7.33;4.57;;;15.80;99.90;;;;;;5057268;28;21179;-67
2023/08/16 05:53:28;;;;;;;4.23;3.80;;;15.90;99.90;;;;;;5060877;28;20219;-66
2023/08/16 05:55:54;;;;;;;4.33;2.70;;;15.90;99.90;;;;;;5055242;28;20172;-67
2023/08/16 05:58:21;;;;;;;8.37;3.50;;;15.90;99.90;;;;;;5055712;28;20195;-65
2023/08/16 06:00:47;;;;;;;4.67;3.60;;;15.90;99.90;;;;;;5054986;28;20213;-67
2023/08/16 06:03:14;;;;;;;3.67;3.37;;;16.00;99.90;;;;;;5059560;28;20876;-66
2023/08/16 06:05:40;;;;;;;4.70;3.37;;;16.00;99.90;;;;;;5073066;28;20482;-65
2023/08/16 06:08:08;;;;;;;4.20;3.20;;;16.10;99.90;;;;;;5075419;28;20527;-73
2023/08/16 06:10:34;;;;;;;9.47;3.70;;;16.10;99.90;;;;;;5074701;28;20436;-66
2023/08/16 06:12:59;;;;;;;3.57;3.27;;;16.10;99.90;;;;;;5075511;28;20807;-66
2023/08/16 06:15:25;;;;;;;5.80;3.40;;;16.20;99.90;;;;;;5071650;28;20183;-66
2023/08/16 06:17:51;;;;;;;7.20;4.83;;;16.20;99.90;;;;;;5055598;28;20194;-68
2023/08/16 06:20:16;;;;;;;5.67;2.50;;;16.30;99.90;;;;;;5038870;28;20198;-65
2023/08/16 06:22:42;;;;;;;5.40;3.13;;;16.30;99.90;;;;;;5055148;28;20171;-67
2023/08/16 06:25:09;;;;;;;7.37;3.33;;;16.50;99.90;;;;;;5054229;28;20167;-65
2023/08/16 06:27:35;;;;;;;3.30;2.80;;;16.50;99.90;;;;;;5055318;28;20179;-66
2023/08/16 06:30:01;;;;;;;3.53;2.67;;;16.60;99.90;;;;;;5054353;28;20440;-70
2023/08/16 06:32:27;;;;;;;5.97;2.53;;;16.70;99.90;;;;;;5054245;28;20413;-65
2023/08/16 06:34:52;;;;;;;6.77;3.50;;;16.80;99.90;;;;;;5055484;28;20440;-66
2023/08/16 06:37:18;;;;;;;6.60;3.10;;;16.80;99.90;;;;;;5074477;28;20227;-66
2023/08/16 06:39:44;;;;;;;4.70;2.80;;;16.90;99.90;;;;;;5075088;28;20786;-68
2023/08/16 06:42:10;;;;;;;2.70;2.50;;;17.00;99.90;;;;;;5073328;28;20166;-65
2023/08/16 06:44:36;;;;;;;6.87;2.43;;;17.00;99.90;;;;;;5074070;28;20174;-66
2023/08/16 06:47:02;;;;;;;6.53;2.07;;;17.00;99.90;;;;;;5054025;28;20814;-66
2023/08/16 06:49:27;;;;;;;6.50;2.67;;;17.10;99.90;;;;;;5053860;28;20413;-66
2023/08/16 06:51:53;;;;;;;7.53;3.30;;;17.20;99.90;;;;;;5054927;28;20463;-69
2023/08/16 06:54:19;;;;;;;5.40;3.10;;;17.30;99.90;;;;;;5054269;28;20733;-68
2023/08/16 06:56:44;;;;;;;5.70;2.60;;;17.30;99.90;;;;;;5053767;28;20650;-72
2023/08/16 06:59:10;;;;;;;4.03;2.70;;;17.40;99.90;;;;;;5054231;28;20175;-67
2023/08/16 07:01:36;;;;;;;6.17;3.30;;;17.50;99.90;;;;;;5056149;28;20191;-66
2023/08/16 07:04:02;;;;;;;6.37;1.87;;;17.50;99.90;;;;;;5054770;28;20417;-68
2023/08/16 07:06:31;;;;;;;5.53;2.67;;;17.60;99.90;;;;;;5053689;28;20179;-67
2023/08/16 07:08:58;;;;;;;10.00;2.80;;;17.60;99.90;;;;;;5053411;28;20495;-67
2023/08/16 07:11:24;;;;;;;7.33;2.83;;;17.70;99.90;;;;;;5064600;28;20474;-73
2023/08/16 07:13:50;;;;;;;7.37;2.30;;;17.80;99.90;;;;;;5074612;28;20400;-66
2023/08/16 07:16:17;;;;;;;5.60;2.13;;;17.90;99.90;;;;;;5071686;28;20429;-67
2023/08/16 07:18:44;;;;;;;8.07;2.50;;;17.90;99.90;;;;;;5073957;28;20456;-67
2023/08/16 07:21:10;;;;;;;11.83;2.80;;;18.00;99.90;;;;;;5063552;28;20473;-68
2023/08/16 07:23:36;;;;;;;2.90;2.67;;;18.00;99.90;;;;;;5053013;28;20409;-66
2023/08/16 07:26:03;;;;;;;5.43;2.37;;;18.10;99.90;;;;;;5053438;28;20544;-74
2023/08/16 07:28:29;;;;;;;5.73;2.63;;;18.20;99.90;;;;;;5053886;28;20201;-67
2023/08/16 07:30:58;;;;;;;4.60;2.57;;;18.30;98.80;;;;;;5053222;28;20528;-68
2023/08/16 07:33:24;;;;;;;6.47;1.93;;;18.40;95.10;;;;;;5052925;28;20517;-72
2023/08/16 07:35:50;;;;;;;9.27;2.43;;;18.30;82.30;;;;;;5053276;28;20424;-67
2023/08/16 07:38:16;;;;;;;7.77;2.33;;;18.40;71.90;;;;;;5056350;28;20218;-68
2023/08/16 07:40:48;;;;;;;7.47;2.27;;;18.50;68.20;;;;;;5056767;28;20471;-74
2023/08/16 07:43:14;;;;;;;8.50;2.40;;;18.50;51.20;;;;;;5053645;28;20479;-66
2023/08/16 07:45:40;;;;;;;12.30;2.67;;;18.60;33.40;;;;;;5060444;28;20436;-67
2023/08/16 07:48:06;;;;;;;3.70;2.10;;;18.70;21.80;;;;;;5071898;28;20451;-71
2023/08/16 07:50:31;;;;;;;7.60;2.50;;;18.70;14.10;;;;;;5073203;28;20185;-68
2023/08/16 07:52:57;;;;;;;7.47;2.57;;;18.80;13.10;;;;;;5072961;28;20231;-67
2023/08/16 07:55:29;;;;;;;4.27;2.40;;;18.90;1.00;;;;;;5059148;28;20213;-67
2023/08/16 07:57:54;;;;;;;5.53;2.17;;;18.90;1.00;;;;;;5053761;28;20652;-64
2023/08/16 08:00:20;;;;;;;3.83;1.73;;;19.10;1.00;;;;;;5058435;28;20512;-64
2023/08/16 08:02:46;;;;;;;7.97;3.10;;;19.10;1.00;;;;;;5072393;28;20646;-66
2023/08/16 08:05:11;;;;;;;3.83;2.00;;;19.10;1.00;;;;;;5072612;28;20174;-64
2023/08/16 08:07:37;;;;;;;5.53;2.13;;;19.20;1.00;;;;;;5073205;28;20197;-64
2023/08/16 08:10:03;;;;;;;7.10;2.30;;;19.20;1.00;;;;;;5055839;28;20175;-67
2023/08/16 08:12:30;;;;;;;7.00;1.97;;;19.40;1.00;;;;;;5052921;28;20178;-64
2023/08/16 08:14:57;;;;;;;3.73;2.30;;;19.40;1.00;;;;;;5052539;28;20170;-66
2023/08/16 08:17:23;;;;;;;5.80;2.00;;;19.40;1.00;;;;;;5052477;28;20926;-67
2023/08/16 08:19:49;;;;;;;7.70;1.93;;;19.50;1.00;;;;;;5053175;28;20449;-67
2023/08/16 08:22:15;;;;;;;4.57;1.80;;;19.60;1.00;;;;;;5059460;28;20439;-67
2023/08/16 08:24:40;;;;;;;5.70;2.20;;;19.70;1.00;;;;;;5071448;28;20213;-72
2023/08/16 08:27:06;;;;;;;9.53;3.47;;;19.80;1.00;;;;;;5057844;28;20203;-69
2023/08/16 08:29:32;;;;;;;2.87;1.90;;;19.80;1.00;;;;;;5051218;28;20265;-73
2023/08/16 08:31:57;;;;;;;8.93;2.20;;;19.80;1.00;;;;;;5067388;28;20655;-71
2023/08/16 08:34:24;;;;;;;8.33;2.20;;;19.90;1.00;;;;;;5073271;28;20186;-69
2023/08/16 08:36:49;;;;;;;3.17;1.80;;;20.00;1.00;;;;;;5053452;28;20210;-70
2023/08/16 08:39:19;;;;;;;7.43;1.90;;;20.00;1.00;;;;;;5052999;28;20444;-70
2023/08/16 08:41:47;;;;;;;5.90;2.30;;;20.00;1.00;;;;;;5053014;28;20163;-69
2023/08/16 08:44:21;;;;;;;6.73;2.17;;;20.10;1.00;;;;;;5053017;28;20451;-70
2023/08/16 08:46:48;;;;;;;2.47;1.70;;;20.20;1.00;;;;;;5068383;28;20519;-70
2023/08/16 08:49:15;;;;;;;2.77;1.73;;;20.20;1.00;;;;;;5072479;28;20491;-74
2023/08/16 08:51:41;;;;;;;2.37;1.90;;;20.40;1.00;;;;;;5072908;28;20397;-70
2023/08/16 08:54:08;;;;;;;5.23;2.20;;;20.60;1.00;;;;;;5072783;28;20425;-71
2023/08/16 08:56:34;;;;;;;3.93;2.30;;;20.70;1.00;;;;;;5070875;28;20958;-70
2023/08/16 08:59:01;;;;;;;6.90;2.40;;;20.90;1.00;;;;;;5071386;28;20431;-71
2023/08/16 09:01:29;;;;;;;3.53;1.83;;;21.10;1.00;;;;;;5071483;28;20436;-69
2023/08/16 09:03:56;;;;;;;6.20;2.20;;;21.30;1.00;;;;;;5072608;28;20412;-71
2023/08/16 09:06:22;;;;;;;6.80;1.77;;;21.40;1.00;;;;;;5069427;28;20458;-70
2023/08/16 09:08:48;;;;;;;5.63;1.80;;;21.40;1.00;;;;;;5072413;28;20444;-69
2023/08/16 09:11:15;;;;;;;6.07;2.80;;;21.50;1.00;;;;;;5072453;28;20412;-70
2023/08/16 09:13:41;;;;;;;4.00;1.90;;;21.60;1.00;;;;;;5071430;28;20166;-69
2023/08/16 09:16:07;;;;;;;2.80;1.87;;;21.80;1.00;;;;;;5068694;28;20445;-69
2023/08/16 09:18:32;;;;;;;2.70;1.63;;;21.90;1.00;;;;;;5054530;28;20449;-74
2023/08/16 09:20:59;;;;;;;4.90;1.90;;;21.90;1.00;;;;;;5051072;28;20677;-70
2023/08/16 09:23:25;;;;;;;6.27;1.93;;;22.00;1.00;;;;;;5052668;28;20531;-69
2023/08/16 09:25:51;;;;;;;6.20;2.30;;;22.20;1.00;;;;;;5061254;28;20436;-78
2023/08/16 09:28:17;;;;;;;4.60;2.13;;;22.30;1.00;;;;;;5056713;28;20205;-69
2023/08/16 09:30:43;;;;;;;3.30;1.50;;;21.90;1.00;;;;;;5059161;28;20182;-70
2023/08/16 09:33:13;;;;;;;3.93;1.80;;;21.90;1.00;;;;;;5071532;28;20290;-71
2023/08/16 09:35:48;;;;;;;5.07;1.80;;;22.10;1.00;;;;;;5068675;28;20527;-70
2023/08/16 09:38:15;;;;;;;3.73;1.70;;;22.10;1.00;;;;;;5052295;28;20443;-69
2023/08/16 09:40:51;;;;;;;4.10;1.70;;;22.00;1.00;;;;;;5052358;28;20783;-70
2023/08/16 09:43:20;;;;;;;6.80;1.60;;;22.30;1.00;;;;;;5050768;28;20820;-71
2023/08/16 09:45:52;;;;;;;9.53;1.63;;;22.70;1.00;;;;;;5056409;28;20424;-70
2023/08/16 09:48:21;;;;;;;4.13;2.03;;;23.00;1.00;;;;;;5072257;28;20436;-69
2023/08/16 09:50:47;;;;;;;3.17;1.60;;;23.10;1.00;;;;;;5072465;28;20431;-69
2023/08/16 09:53:13;;;;;;;4.20;1.50;;;23.20;1.00;;;;;;5072264;28;20428;-71
2023/08/16 09:55:49;;;;;;;3.17;1.73;;;23.40;1.00;;;;;;5070505;28;20482;-70
2023/08/16 09:58:16;;;;;;;3.43;1.53;;;23.70;1.00;;;;;;5071216;28;20942;-67
2023/08/16 10:00:43;;;;;;;5.53;1.80;;;23.90;1.00;;;;;;5060323;28;20464;-68
2023/08/16 10:03:10;;;;;;;11.33;1.53;;;24.00;1.00;;;;;;5071839;28;20878;-69
2023/08/16 10:05:36;;;;;;;5.70;1.97;;;24.20;1.00;;;;;;5070017;28;20432;-68
2023/08/16 10:08:05;;;;;;;2.63;1.60;;;24.20;1.00;;;;;;5054235;28;20444;-70
2023/08/16 10:10:34;;;;;;;6.13;1.47;;;24.50;1.00;;;;;;5075048;28;20804;-71
2023/08/16 10:13:03;;;;;;;3.17;1.73;;;24.90;1.00;;;;;;5075834;28;20492;-69
2023/08/16 10:15:33;;;;;;;6.50;2.00;;;25.10;1.00;;;;;;5073133;28;20433;-69
2023/08/16 10:18:01;;;;;;;1.80;1.47;;;25.20;1.00;;;;;;5074292;28;20451;-69
2023/08/16 10:20:32;;;;;;;2.43;1.37;;;25.20;1.00;;;;;;5074897;28;21042;-69
2023/08/16 10:23:00;;;;;;;2.27;1.33;;;25.40;1.00;;;;;;5075606;28;20404;-69
2023/08/16 10:25:37;;;;;;;3.40;1.33;;;25.70;1.00;;;;;;5073159;28;20435;-68
2023/08/16 10:28:04;;;;;;;3.97;1.37;;;25.80;1.00;;;;;;5075489;28;20463;-69
2023/08/16 10:30:32;;;;;;;3.53;1.13;;;25.60;1.00;;;;;;5073591;28;20417;-70
2023/08/16 10:33:06;;;;;;;3.50;1.30;;;25.40;1.00;;;;;;5075490;28;20478;-70
2023/08/16 10:35:33;;;;;;;3.27;1.33;;;25.70;1.00;;;;;;5073325;28;20440;-69
2023/08/16 10:37:59;;;;;;;2.33;1.23;;;26.00;1.00;;;;;;5074622;28;20416;-69
2023/08/16 10:40:25;;;;;;;3.40;1.20;;;26.50;1.00;;;;;;5074016;28;20457;-70
2023/08/16 10:42:58;;;;;;;4.57;1.40;;;26.90;1.00;;;;;;5075202;28;20194;-69
2023/08/16 10:45:34;;;;;;;2.73;1.47;;;26.90;1.00;;;;;;5072474;28;20166;-70
2023/08/16 10:48:10;;;;;;;3.43;1.30;;;26.90;1.00;;;;;;5073750;28;20509;-70
2023/08/16 10:50:36;;;;;;;2.77;1.63;;;27.00;99.90;;;;;;5075033;28;20423;-70
2023/08/16 10:53:02;;;;;;;3.70;1.10;;;27.30;99.90;;;;;;5075041;28;20397;-69
2023/08/16 10:55:28;;;;;;;1.20;1.10;;;27.40;99.90;;;;;;5072412;28;20219;-70
2023/08/16 10:57:54;;;;;;;1.73;1.33;;;27.50;99.90;;;;;;5074951;28;20251;-73
2023/08/16 11:00:29;;;;;;;3.53;1.20;;;27.50;99.90;;;;;;5075107;28;20246;-69
2023/08/16 11:02:54;;;;;;;3.30;1.40;;;27.20;99.90;;;;;;5065468;28;20173;-69
2023/08/16 11:05:24;;;;;;;3.93;1.67;;;27.10;99.90;;;;;;5072753;28;21063;-70
2023/08/16 11:07:50;;;;;;;2.20;1.90;;;26.90;99.90;;;;;;5074831;28;20193;-69
2023/08/16 11:10:16;;;;;;;3.87;1.30;;;26.80;99.90;;;;;;5073213;28;20921;-75
2023/08/16 11:12:42;;;;;;;4.70;1.50;;;26.40;99.90;;;;;;5073123;28;20174;-71
2023/08/16 11:15:09;;;;;;;5.43;2.30;;;26.50;99.90;;;;;;5065734;28;20182;-69
2023/08/16 11:17:37;;;;;;;2.43;1.70;;;26.70;99.90;;;;;;5058373;28;20449;-71
2023/08/16 11:20:07;;;;;;;3.80;1.37;;;26.80;99.90;;;;;;5054252;28;20461;-70
2023/08/16 11:22:33;;;;;;;7.00;1.60;;;26.90;99.90;;;;;;5054481;28;20483;-69
2023/08/16 11:25:01;;;;;;;1.93;1.17;;;27.10;99.90;;;;;;5053858;28;20484;-70
2023/08/16 11:27:28;;;;;;;6.23;1.60;;;27.40;99.90;;;;;;5054061;28;20229;-69
2023/08/16 11:30:01;;;;;;;2.80;1.20;;;27.90;99.90;;;;;;5054065;28;20407;-69
2023/08/16 11:32:36;;;;;;;1.63;0.90;;;28.10;99.90;;;;;;5054885;28;20542;-69
2023/08/16 11:35:09;;;;;;;1.97;0.93;;;28.10;99.90;;;;;;5052504;28;20483;-73
2023/08/16 11:37:36;;;;;;;2.37;1.47;;;28.20;99.90;;;;;;5053633;28;20431;-72
2023/08/16 11:40:05;;;;;;;6.30;1.43;;;28.10;99.90;;;;;;5054145;28;20544;-69
2023/08/16 11:42:31;;;;;;;2.37;1.20;;;28.00;99.90;;;;;;5054065;28;20413;-69
2023/08/16 11:44:57;;;;;;;3.73;1.50;;;28.40;99.90;;;;;;5070697;28;20432;-70
2023/08/16 11:47:23;;;;;;;5.37;1.07;;;28.90;99.90;;;;;;5070830;28;20458;-68
2023/08/16 11:49:50;;;;;;;3.30;0.83;;;29.20;99.90;;;;;;5073636;28;20217;-69
2023/08/16 11:52:25;;;;;;;3.27;1.53;;;29.30;99.90;;;;;;5072679;28;20415;-70
2023/08/16 11:55:05;;;;;;;4.00;1.67;;;29.50;99.90;;;;;;5055102;28;21031;-71
2023/08/16 11:57:43;;;;;;;3.23;1.30;;;29.70;99.90;;;;;;5053627;28;20946;-69
2023/08/16 12:00:10;;;;;;;2.23;1.27;;;29.90;99.90;;;;;;5053604;28;20509;-69
2023/08/16 12:02:36;;;;;;;1.80;1.10;;;30.10;99.90;;;;;;5062138;28;20421;-71
2023/08/16 12:05:10;;;;;;;3.43;1.00;;;29.70;99.90;;;;;;5071896;28;20420;-77
2023/08/16 12:07:51;;;;;;;3.03;1.97;;;29.40;99.90;;;;;;5071414;28;20535;-71
2023/08/16 12:10:27;;;;;;;5.53;1.07;;;29.60;99.90;;;;;;5073604;28;20491;-69
2023/08/16 12:12:56;;;;;;;1.83;0.90;;;30.00;99.90;;;;;;5071550;28;20439;-69
2023/08/16 12:15:23;;;;;;;4.93;1.00;;;30.10;99.90;;;;;;5072485;28;20500;-69
2023/08/16 12:17:51;;;;;;;2.17;1.00;;;30.30;99.90;;;;;;5071613;28;20451;-69
2023/08/16 12:20:16;;;;;;;4.10;1.27;;;30.10;99.90;;;;;;5072043;28;20542;-68
2023/08/16 12:22:44;;;;;;;2.80;1.40;;;30.40;99.90;;;;;;5071601;28;20515;-71
2023/08/16 12:25:09;;;;;;;5.27;1.37;;;30.90;99.90;;;;;;5070774;28;20178;-69
2023/08/16 12:27:35;;;;;;;1.80;0.93;;;31.30;99.90;;;;;;5072739;28;20780;-69
2023/08/16 12:30:01;;;;;;;1.60;0.73;;;31.70;99.90;;;;;;5071291;28;20647;-69
2023/08/16 12:32:27;;;;;;;5.10;0.90;;;31.70;99.90;;;;;;5070711;28;20635;-70
2023/08/16 12:34:53;;;;;;;3.53;1.10;;;31.70;99.90;;;;;;5072241;28;20546;-70
2023/08/16 12:37:19;;;;;;;5.17;0.90;;;31.40;99.90;;;;;;5072404;28;20193;-70
2023/08/16 12:39:44;;;;;;;3.53;1.17;;;30.70;99.90;;;;;;5071618;28;20952;-72
2023/08/16 12:42:10;;;;;;;3.30;1.87;;;30.00;99.90;;;;;;5073106;28;20238;-70
2023/08/16 12:44:36;;;;;;;1.53;0.90;;;29.30;99.90;;;;;;5072879;28;20170;-69
2023/08/16 12:47:02;;;;;;;2.00;0.90;;;28.70;99.90;;;;;;5069379;28;20431;-72